Modesto City-Co-Harry Sham Fld Information

FAA: MOD - ICAO: KMOD

Modesto City-Co-Harry Sham Fld (Airport) Location

State California
County Stanislaus
City Modesto
Modesto City-Co-Harry Sham Fld (Airport) is 2 miles southeast of Modesto, CA.
Latitude 37-37-33.0000N
Longitude 120-57-15.9000W
Elevation 99ft

Modesto City-Co-Harry Sham Fld METARs

METAR KMOD 172053Z 32013KT 10SM CLR 28/09 A2996 RMK AO2 SLP145 T02830089 58014
Altimeter 29.96"
Temperature 28.3°C (82.9°F)
Wind 320° at 13KT
Clouds Skies are clear.
Visibility 10.0mi
Time observed: 2022-05-17T20:53:00Z

Modesto City-Co-Harry Sham Fld (Airport) Details

Status Operational
Activation April 1940
Ownership Public
Usage Public
Chart SAN FRANCISCO
ATC on-site Yes
Beacon schedule sunset-sunrise
Beacon color clear green

Modesto City-Co-Harry Sham Fld (Airport) Contacts

Owner CITY OF MODESTO
Owner address PO BOX 642, MODESTO, CA 95353
Owner phone 209-577-5318
Manager TOM GIUSTI
Manager address 22122 KARNAK RD, KNIGHTS LANDING, CA 95645
Manager phone 916-696-2221

Modesto City-Co-Harry Sham Fld Radio Frequencies

Modesto City-Co-Harry Sham Fld (Airport) Radio Frequencies

UNICOM 122.95
Common traffic advisory frequency (CTAF) 125.3